createdAt,value
2022-08-09T00:01:54.071Z,50.36
2022-08-09T00:05:03.068Z,50.60
2022-08-09T00:08:32.297Z,50.70
2022-08-09T00:12:03.920Z,50.67
2022-08-09T00:14:58.536Z,50.75
2022-08-09T00:18:11.506Z,50.65
2022-08-09T00:21:15.053Z,51.03
2022-08-09T00:24:20.900Z,50.88
2022-08-09T00:27:23.752Z,50.83
2022-08-09T00:30:30.679Z,51.48
2022-08-09T00:33:50.610Z,51.70
2022-08-09T00:36:54.478Z,51.67
2022-08-09T00:40:09.818Z,51.77
2022-08-09T00:44:16.261Z,51.63
2022-08-09T00:46:56.622Z,51.95
2022-08-09T00:50:05.399Z,52.06
2022-08-09T00:53:11.672Z,51.73
2022-08-09T00:56:16.808Z,51.67
2022-08-09T00:59:40.558Z,51.43
2022-08-09T01:02:48.651Z,51.60
2022-08-09T01:05:58.460Z,51.85
2022-08-09T01:09:36.786Z,51.84
2022-08-09T01:12:48.291Z,52.23
2022-08-09T01:15:56.358Z,52.79
2022-08-09T01:19:04.745Z,52.80
2022-08-09T01:22:40.902Z,52.96
2022-08-09T01:26:02.142Z,53.06
2022-08-09T01:29:08.078Z,52.66
2022-08-09T01:32:29.925Z,52.63
2022-08-09T01:35:42.129Z,53.00
2022-08-09T01:38:48.448Z,53.34
2022-08-09T01:41:53.385Z,53.12
2022-08-09T01:45:01.637Z,53.35
2022-08-09T01:48:06.878Z,53.35
2022-08-09T01:51:11.988Z,53.42
2022-08-09T01:54:32.777Z,53.92
2022-08-09T01:57:40.335Z,53.55
2022-08-09T02:00:51.383Z,53.69
2022-08-09T02:03:57.584Z,53.96
2022-08-09T02:07:15.364Z,53.94
2022-08-09T02:10:28.585Z,54.27
2022-08-09T02:13:40.393Z,54.29
2022-08-09T02:16:59.729Z,54.51
2022-08-09T02:20:09.160Z,54.73
2022-08-09T02:23:16.924Z,55.01
2022-08-09T02:26:27.009Z,55.27
2022-08-09T02:29:34.883Z,55.16
2022-08-09T02:32:44.865Z,54.69
2022-08-09T02:36:03.385Z,54.65
2022-08-09T02:39:14.284Z,54.78
2022-08-09T02:42:29.113Z,54.71
2022-08-09T02:45:35.674Z,54.75
2022-08-09T02:48:46.178Z,54.83
2022-08-09T02:51:54.617Z,54.88
2022-08-09T02:55:00.061Z,54.72
2022-08-09T02:58:32.926Z,54.92
2022-08-09T03:02:05.117Z,54.88
2022-08-09T03:04:58.045Z,54.51
2022-08-09T03:08:05.965Z,54.39
2022-08-09T03:11:10.267Z,54.44
2022-08-09T03:14:14.508Z,54.39
2022-08-09T03:17:26.353Z,54.46
2022-08-09T03:20:32.330Z,54.70
2022-08-09T03:23:35.880Z,54.53
2022-08-09T03:26:45.043Z,54.66
2022-08-09T03:29:58.211Z,54.94
2022-08-09T03:33:17.518Z,54.80
2022-08-09T03:36:27.748Z,54.75
2022-08-09T03:39:37.902Z,54.80
2022-08-09T03:42:43.201Z,54.85
2022-08-09T03:46:04.649Z,54.89
2022-08-09T03:49:10.419Z,54.96
2022-08-09T03:52:17.673Z,54.92
2022-08-09T03:55:21.349Z,54.95
2022-08-09T03:58:26.189Z,55.33
2022-08-09T04:01:32.028Z,55.10
2022-08-09T04:04:38.794Z,55.14
2022-08-09T04:07:52.934Z,55.30
2022-08-09T04:11:01.465Z,55.60
2022-08-09T04:14:59.143Z,55.18
2022-08-09T04:17:29.569Z,55.64
2022-08-09T04:20:32.961Z,55.29
2022-08-09T04:23:38.098Z,55.21
2022-08-09T04:26:42.515Z,55.66
2022-08-09T04:29:50.091Z,55.53
2022-08-09T04:32:54.197Z,55.52
2022-08-09T04:35:57.071Z,55.87
2022-08-09T04:39:03.591Z,55.56
2022-08-09T04:42:09.318Z,56.01
2022-08-09T04:45:12.775Z,55.24
2022-08-09T04:48:15.952Z,55.35
2022-08-09T04:51:18.632Z,55.94
2022-08-09T04:54:24.475Z,55.94
2022-08-09T04:57:54.432Z,55.75
2022-08-09T05:00:50.577Z,56.00
2022-08-09T05:03:58.670Z,56.02
2022-08-09T05:07:01.503Z,55.60
2022-08-09T05:10:06.341Z,55.52
2022-08-09T05:13:10.798Z,55.43
2022-08-09T05:16:15.067Z,55.43
2022-08-09T05:19:24.482Z,55.32
2022-08-09T05:22:35.819Z,55.29
2022-08-09T05:25:53.393Z,54.98
2022-08-09T05:28:59.626Z,55.54
2022-08-09T05:32:05.876Z,55.64
2022-08-09T05:35:09.613Z,54.29
2022-08-09T05:38:12.421Z,54.57
2022-08-09T05:41:26.159Z,54.16
2022-08-09T05:44:32.626Z,54.72
2022-08-09T05:47:35.842Z,54.42
2022-08-09T05:51:16.957Z,53.46
2022-08-09T05:54:17.995Z,53.90
2022-08-09T05:57:50.365Z,53.42
2022-08-09T06:00:44.827Z,52.85
2022-08-09T06:03:58.474Z,52.73
2022-08-09T06:07:01.586Z,52.67
2022-08-09T06:10:05.799Z,52.25
2022-08-09T06:13:18.959Z,51.53
2022-08-09T06:16:23.721Z,51.12
2022-08-09T06:19:27.494Z,51.30
2022-08-09T06:22:30.550Z,51.12
2022-08-09T06:25:33.263Z,50.73
2022-08-09T06:28:38.541Z,49.78
2022-08-09T06:32:17.224Z,49.47
2022-08-09T06:35:10.081Z,48.87
2022-08-09T06:38:12.887Z,48.56
2022-08-09T06:41:20.463Z,48.66
2022-08-09T06:44:24.768Z,46.71
2022-08-09T06:47:39.498Z,46.67
2022-08-09T06:50:42.845Z,46.05
2022-08-09T06:53:46.052Z,46.04
2022-08-09T06:56:52.579Z,44.86
2022-08-09T07:00:48.791Z,45.15
2022-08-09T07:03:19.520Z,44.48
2022-08-09T07:06:31.539Z,44.16
2022-08-09T07:09:57.142Z,44.16
2022-08-09T07:12:57.914Z,43.49
2022-08-09T07:16:41.037Z,42.82
2022-08-09T07:19:25.297Z,42.38
2022-08-09T07:22:42.242Z,40.89
2022-08-09T07:25:52.437Z,39.40
2022-08-09T07:29:09.112Z,39.87
2022-08-09T07:32:16.335Z,37.06
2022-08-09T07:35:19.839Z,36.06
2022-08-09T07:38:23.724Z,35.76
2022-08-09T07:41:38.868Z,37.78
2022-08-09T07:44:51.649Z,36.42
2022-08-09T07:48:04.484Z,34.21
2022-08-09T07:52:02.861Z,34.85
2022-08-09T07:54:31.869Z,33.79
2022-08-09T07:57:35.870Z,33.05
2022-08-09T08:00:55.494Z,32.89
2022-08-09T08:04:03.972Z,31.19
2022-08-09T08:08:06.766Z,30.57
2022-08-09T08:10:37.209Z,31.73
2022-08-09T08:13:55.930Z,29.46
2022-08-09T08:17:07.717Z,30.06
2022-08-09T08:20:13.756Z,30.28
2022-08-09T08:23:17.816Z,30.15
2022-08-09T08:26:26.692Z,28.73
2022-08-09T08:29:45.249Z,30.15
2022-08-09T08:32:53.919Z,28.63
2022-08-09T08:36:00.173Z,27.99
2022-08-09T08:39:04.751Z,26.51
2022-08-09T08:42:07.692Z,28.97
2022-08-09T08:45:13.298Z,27.38
2022-08-09T08:48:19.563Z,26.94
2022-08-09T08:51:24.601Z,26.62
2022-08-09T08:54:28.130Z,27.07
2022-08-09T08:57:34.754Z,27.24
2022-08-09T09:00:38.851Z,24.95
2022-08-09T09:03:43.665Z,24.63
2022-08-09T09:06:50.086Z,25.71
2022-08-09T09:10:02.533Z,25.48
2022-08-09T09:13:09.445Z,24.85
2022-08-09T09:16:14.211Z,25.23
2022-08-09T09:22:56.379Z,23.94
2022-08-09T09:26:01.716Z,24.68
2022-08-09T09:29:16.779Z,24.60
2022-08-09T09:32:32.423Z,24.53
2022-08-09T09:36:00.611Z,24.27
2022-08-09T09:39:10.161Z,24.02
2022-08-09T09:42:26.274Z,23.83
2022-08-09T09:45:29.461Z,23.99
2022-08-09T09:48:33.697Z,25.06
2022-08-09T09:51:40.308Z,23.37
2022-08-09T09:54:48.801Z,25.14
2022-08-09T09:58:02.347Z,23.76
2022-08-09T10:01:30.256Z,24.62
2022-08-09T10:04:41.337Z,23.87
2022-08-09T10:08:10.705Z,23.87
2022-08-09T10:11:54.045Z,24.15
2022-08-09T10:14:43.928Z,23.10
2022-08-09T10:17:56.370Z,23.70
2022-08-09T10:21:07.872Z,23.22
2022-08-09T10:24:15.952Z,24.00
2022-08-09T10:27:34.520Z,25.45
2022-08-09T10:32:27.895Z,26.32
2022-08-09T10:34:11.399Z,27.57
2022-08-09T10:37:27.858Z,27.56
2022-08-09T10:40:41.155Z,28.18
2022-08-09T10:44:00.070Z,27.90
2022-08-09T10:48:26.552Z,28.23
2022-08-09T10:51:09.359Z,29.54
2022-08-09T10:54:13.764Z,27.05
2022-08-09T10:57:16.875Z,25.25
2022-08-09T11:03:03.105Z,24.40
2022-08-09T11:04:31.170Z,22.96
2022-08-09T11:07:57.725Z,22.81
2022-08-09T11:11:00.559Z,23.79
2022-08-09T11:14:31.927Z,24.67
2022-08-09T11:17:57.026Z,24.60
2022-08-09T11:21:05.919Z,25.13
2022-08-09T11:24:10.579Z,25.50
2022-08-09T11:28:03.789Z,26.95
2022-08-09T11:30:53.042Z,27.75
2022-08-09T11:34:04.756Z,26.86
2022-08-09T11:37:18.002Z,24.97
2022-08-09T11:40:30.495Z,24.10
2022-08-09T11:43:42.181Z,24.09
2022-08-09T11:46:57.051Z,23.00
2022-08-09T11:50:54.359Z,22.33
2022-08-09T11:53:58.774Z,23.07
2022-08-09T11:56:50.482Z,24.58
2022-08-09T11:59:53.804Z,24.62
2022-08-09T12:02:58.301Z,25.57
2022-08-09T12:06:10.508Z,25.40
2022-08-09T12:09:17.559Z,26.13
2022-08-09T12:12:29.035Z,26.54
2022-08-09T12:15:49.760Z,25.29
2022-08-09T12:18:54.694Z,23.95
2022-08-09T12:22:03.294Z,24.19
2022-08-09T12:25:14.897Z,24.21
2022-08-09T12:29:11.993Z,24.18
2022-08-09T12:32:01.859Z,24.00
2022-08-09T12:35:12.518Z,23.36
2022-08-09T12:38:37.683Z,23.18
2022-08-09T12:41:41.341Z,23.25
2022-08-09T12:44:52.418Z,22.04
2022-08-09T12:47:57.394Z,24.57
2022-08-09T12:51:03.989Z,23.91
2022-08-09T12:54:09.341Z,23.43
2022-08-09T12:57:12.030Z,24.75
2022-08-09T13:00:18.847Z,24.74
2022-08-09T13:03:53.665Z,26.06
2022-08-09T13:06:54.196Z,27.14
2022-08-09T13:10:04.201Z,25.80
2022-08-09T13:13:10.980Z,26.56
2022-08-09T13:16:17.588Z,24.59
2022-08-09T13:20:09.708Z,24.85
2022-08-09T13:23:05.739Z,24.27
2022-08-09T13:26:36.791Z,23.17
2022-08-09T13:30:02.589Z,23.84
2022-08-09T13:33:02.616Z,23.66
2022-08-09T13:36:24.080Z,25.02
2022-08-09T13:41:19.092Z,25.26
2022-08-09T13:42:55.127Z,24.69
2022-08-09T13:46:44.429Z,25.84
2022-08-09T13:49:20.602Z,24.62
2022-08-09T13:52:23.483Z,24.36
2022-08-09T13:55:28.937Z,24.62
2022-08-09T13:58:34.463Z,25.03
2022-08-09T14:02:00.467Z,25.66
2022-08-09T14:05:00.646Z,26.63
2022-08-09T14:08:05.293Z,27.02
2022-08-09T14:11:16.007Z,26.81
2022-08-09T14:14:26.819Z,27.92
2022-08-09T14:17:32.675Z,28.05
2022-08-09T14:20:53.777Z,27.29
2022-08-09T14:23:57.499Z,27.42
2022-08-09T14:27:01.240Z,27.67
2022-08-09T14:30:37.070Z,27.83
2022-08-09T14:33:29.846Z,27.25
2022-08-09T14:36:35.374Z,27.30
2022-08-09T14:39:46.438Z,27.55
2022-08-09T14:42:51.014Z,26.95
2022-08-09T14:46:59.034Z,26.67
2022-08-09T14:49:18.454Z,26.83
2022-08-09T14:52:26.220Z,27.80
2022-08-09T14:55:32.019Z,27.44
2022-08-09T14:58:37.750Z,27.07
2022-08-09T15:01:48.121Z,28.00
2022-08-09T15:04:52.258Z,27.94
2022-08-09T15:07:56.913Z,27.62
2022-08-09T15:11:07.028Z,27.16
2022-08-09T15:14:13.440Z,27.43
2022-08-09T15:17:17.862Z,26.49
2022-08-09T15:21:55.665Z,27.74
2022-08-09T15:24:02.954Z,27.46
2022-08-09T15:27:07.140Z,27.25
2022-08-09T15:31:00.670Z,27.72
2022-08-09T15:34:16.277Z,28.41
2022-08-09T15:37:04.199Z,27.04
2022-08-09T15:40:11.649Z,27.96
2022-08-09T15:43:14.914Z,27.26
2022-08-09T15:46:31.868Z,28.48
2022-08-09T15:49:38.803Z,28.77
2022-08-09T15:53:05.995Z,28.25
2022-08-09T15:56:23.393Z,28.76
2022-08-09T15:59:36.935Z,28.50
2022-08-09T16:02:40.439Z,29.29
2022-08-09T16:05:53.106Z,29.15
2022-08-09T16:09:01.135Z,29.14
2022-08-09T16:12:11.593Z,29.28
2022-08-09T16:16:11.517Z,28.61
2022-08-09T16:18:37.862Z,28.92
2022-08-09T16:21:51.993Z,28.47
2022-08-09T16:24:56.851Z,28.47
2022-08-09T16:28:02.197Z,28.60
2022-08-09T16:31:16.136Z,28.66
2022-08-09T16:34:19.082Z,28.86
2022-08-09T16:37:55.789Z,28.74
2022-08-09T16:40:50.630Z,28.75
2022-08-09T16:43:54.007Z,29.64
2022-08-09T16:47:04.209Z,29.61
2022-08-09T16:50:31.145Z,29.66
2022-08-09T16:53:51.367Z,29.12
2022-08-09T16:57:00.741Z,29.84
2022-08-09T17:00:03.663Z,29.92
2022-08-09T17:03:06.402Z,30.30
2022-08-09T17:06:28.896Z,30.90
2022-08-09T17:09:44.007Z,30.86
2022-08-09T17:12:49.781Z,31.22
2022-08-09T17:16:00.301Z,31.76
2022-08-09T17:19:05.334Z,31.73
2022-08-09T17:22:08.275Z,32.43
2022-08-09T17:25:13.718Z,32.21
2022-08-09T17:28:16.443Z,32.21
2022-08-09T17:31:21.295Z,32.76
2022-08-09T17:35:10.898Z,32.50
2022-08-09T17:38:14.410Z,32.93
2022-08-09T17:41:12.319Z,32.86
2022-08-09T17:44:41.667Z,33.27
2022-08-09T17:47:49.813Z,33.06
2022-08-09T17:51:06.528Z,33.29
2022-08-09T17:54:28.060Z,33.53
2022-08-09T17:58:02.883Z,33.79
2022-08-09T18:00:58.567Z,33.55
2022-08-09T18:04:01.519Z,33.92
2022-08-09T18:07:07.684Z,33.90
2022-08-09T18:10:11.696Z,34.31
2022-08-09T18:13:43.164Z,34.16
2022-08-09T18:16:39.398Z,33.95
2022-08-09T18:20:56.439Z,34.56
2022-08-09T18:24:10.418Z,34.71
2022-08-09T18:26:38.002Z,35.18
2022-08-09T18:30:38.509Z,35.61
2022-08-09T18:33:13.410Z,35.07
2022-08-09T18:36:32.173Z,35.26
2022-08-09T18:39:39.635Z,35.46
2022-08-09T18:42:46.783Z,35.88
2022-08-09T18:46:50.384Z,35.97
2022-08-09T18:49:16.427Z,35.86
2022-08-09T18:52:24.775Z,36.60
2022-08-09T18:55:56.265Z,36.13
2022-08-09T18:58:55.323Z,36.80
2022-08-09T19:02:00.316Z,37.35
2022-08-09T19:05:20.318Z,38.23
2022-08-09T19:08:32.114Z,38.32
2022-08-09T19:11:38.223Z,38.03
2022-08-09T19:14:43.320Z,38.39
2022-08-09T19:17:55.020Z,38.24
2022-08-09T19:21:00.587Z,38.66
2022-08-09T19:24:33.356Z,38.98
2022-08-09T19:27:28.747Z,39.28
2022-08-09T19:30:32.413Z,39.26
2022-08-09T19:33:37.445Z,39.37
2022-08-09T19:36:40.076Z,39.46
2022-08-09T19:40:03.732Z,39.52
2022-08-09T19:43:10.376Z,40.19
2022-08-09T19:46:34.973Z,40.15
2022-08-09T19:50:07.252Z,40.46
2022-08-09T19:53:04.568Z,40.81
2022-08-09T19:56:07.818Z,40.98
2022-08-09T19:59:57.779Z,40.84
2022-08-09T20:04:12.549Z,41.63
2022-08-09T20:06:22.690Z,41.78
2022-08-09T20:09:44.391Z,41.98
2022-08-09T20:12:49.059Z,42.19
2022-08-09T20:16:35.773Z,42.14
2022-08-09T20:19:47.649Z,42.54
2022-08-09T20:22:42.918Z,42.95
2022-08-09T20:25:52.540Z,42.88
2022-08-09T20:28:55.991Z,43.23
2022-08-09T20:32:28.624Z,43.62
2022-08-09T20:35:24.356Z,43.97
2022-08-09T20:38:48.401Z,44.06
2022-08-09T20:41:51.113Z,43.89
2022-08-09T20:45:04.745Z,44.74
2022-08-09T20:48:21.145Z,44.64
2022-08-09T20:51:25.021Z,45.34
2022-08-09T20:54:29.200Z,45.32
2022-08-09T20:57:32.903Z,45.07
2022-08-09T21:00:36.385Z,45.30
2022-08-09T21:05:48.606Z,45.76
2022-08-09T21:07:14.102Z,45.89
2022-08-09T21:10:18.526Z,45.46
2022-08-09T21:13:21.446Z,46.04
2022-08-09T21:16:28.229Z,46.35
2022-08-09T21:20:19.618Z,46.75
2022-08-09T21:22:56.149Z,46.74
2022-08-09T21:26:00.952Z,46.99
2022-08-09T21:29:11.960Z,46.89
2022-08-09T21:32:18.833Z,47.26
2022-08-09T21:35:22.072Z,47.55
2022-08-09T21:38:31.260Z,47.71
2022-08-09T21:42:04.351Z,47.77
2022-08-09T21:44:58.967Z,48.48
2022-08-09T21:48:02.436Z,48.27
2022-08-09T21:51:13.318Z,48.59
2022-08-09T21:54:17.338Z,48.59
2022-08-09T21:57:25.270Z,48.73
2022-08-09T22:00:42.691Z,49.25
2022-08-09T22:03:59.079Z,49.51
2022-08-09T22:07:04.823Z,49.49
2022-08-09T22:10:09.606Z,49.79
2022-08-09T22:13:14.144Z,49.98
2022-08-09T22:16:21.189Z,50.21
2022-08-09T22:19:58.675Z,50.34
2022-08-09T22:22:49.955Z,50.25
2022-08-09T22:26:07.643Z,50.54
2022-08-09T22:32:36.619Z,50.64
2022-08-09T22:36:02.229Z,51.45
2022-08-09T22:39:02.855Z,51.51
2022-08-09T22:42:22.564Z,51.67
2022-08-09T22:48:10.617Z,52.00
2022-08-09T22:48:51.970Z,52.24
2022-08-09T22:51:57.636Z,52.51
2022-08-09T22:55:00.334Z,52.53
2022-08-09T22:58:04.925Z,52.77
2022-08-09T23:01:09.122Z,53.27
2022-08-09T23:04:12.074Z,52.79
2022-08-09T23:08:21.820Z,53.59
2022-08-09T23:10:55.212Z,53.49
2022-08-09T23:13:59.584Z,54.07
2022-08-09T23:17:03.757Z,54.18
2022-08-09T23:20:08.416Z,54.34
2022-08-09T23:23:11.569Z,54.42
2022-08-09T23:26:14.180Z,54.53
2022-08-09T23:29:17.083Z,54.67
2022-08-09T23:32:21.076Z,54.66
2022-08-09T23:35:24.678Z,54.69
2022-08-09T23:38:27.345Z,54.90
2022-08-09T23:41:30.696Z,55.44
2022-08-09T23:44:33.567Z,55.50
2022-08-09T23:47:37.749Z,55.59
2022-08-09T23:50:40.531Z,55.86
2022-08-09T23:53:43.881Z,56.38
2022-08-09T23:56:54.591Z,56.38
